sensor_id;sensor_type;location;lat;lon;timestamp;pressure;altitude;pressure_sealevel;temperature;humidity
68873;BME280;55907;50.806;12.882;2023-02-16T00:01:21;981.5;;;5.6;52.2
68873;BME280;55907;50.806;12.882;2023-02-16T00:04:21;981.5;;;5.5;52.7
68873;BME280;55907;50.806;12.882;2023-02-16T00:07:20;981.5;;;5.5;52.6
68873;BME280;55907;50.806;12.882;2023-02-16T00:10:23;981.5;;;5.5;52.7
68873;BME280;55907;50.806;12.882;2023-02-16T00:13:26;981.5;;;5.5;52.8
68873;BME280;55907;50.806;12.882;2023-02-16T00:16:25;981.5;;;5.5;52.9
68873;BME280;55907;50.806;12.882;2023-02-16T00:19:28;981.5;;;5.5;53.0
68873;BME280;55907;50.806;12.882;2023-02-16T00:22:28;981.5;;;5.4;53.1
68873;BME280;55907;50.806;12.882;2023-02-16T00:25:30;981.5;;;5.4;53.1
68873;BME280;55907;50.806;12.882;2023-02-16T00:28:32;981.5;;;5.4;53.2
68873;BME280;55907;50.806;12.882;2023-02-16T00:31:33;981.5;;;5.5;53.5
68873;BME280;55907;50.806;12.882;2023-02-16T00:34:36;981.5;;;5.5;53.4
68873;BME280;55907;50.806;12.882;2023-02-16T00:37:36;981.5;;;5.5;53.5
68873;BME280;55907;50.806;12.882;2023-02-16T00:40:39;981.5;;;5.5;53.4
68873;BME280;55907;50.806;12.882;2023-02-16T00:43:39;981.4;;;5.5;53.7
68873;BME280;55907;50.806;12.882;2023-02-16T00:46:41;981.4;;;5.5;53.6
68873;BME280;55907;50.806;12.882;2023-02-16T00:49:42;981.4;;;5.5;53.6
68873;BME280;55907;50.806;12.882;2023-02-16T00:52:45;981.4;;;5.6;53.4
68873;BME280;55907;50.806;12.882;2023-02-16T00:55:46;981.5;;;5.6;53.4
68873;BME280;55907;50.806;12.882;2023-02-16T00:58:49;981.5;;;5.6;53.4
68873;BME280;55907;50.806;12.882;2023-02-16T01:01:49;981.5;;;5.7;53.3
68873;BME280;55907;50.806;12.882;2023-02-16T01:04:50;981.5;;;5.6;53.3
68873;BME280;55907;50.806;12.882;2023-02-16T01:07:52;981.4;;;5.7;53.4
68873;BME280;55907;50.806;12.882;2023-02-16T01:10:47;unavailable;;;unavailable;unavailable
68873;BME280;55907;50.806;12.882;2023-02-16T01:10:53;981.4;;;5.6;53.5
68873;BME280;55907;50.806;12.882;2023-02-16T01:13:56;981.3;;;5.6;53.7
68873;BME280;55907;50.806;12.882;2023-02-16T01:16:56;981.3;;;5.6;53.5
68873;BME280;55907;50.806;12.882;2023-02-16T01:19:58;981.3;;;5.6;53.6
68873;BME280;55907;50.806;12.882;2023-02-16T01:23:00;981.2;;;5.6;53.8
68873;BME280;55907;50.806;12.882;2023-02-16T01:26:01;981.2;;;5.6;54.1
68873;BME280;55907;50.806;12.882;2023-02-16T01:29:02;981.2;;;5.7;54.2
68873;BME280;55907;50.806;12.882;2023-02-16T01:32:04;981.2;;;5.7;54.1
68873;BME280;55907;50.806;12.882;2023-02-16T01:35:06;981.3;;;5.7;54.0
68873;BME280;55907;50.806;12.882;2023-02-16T01:38:12;981.2;;;5.7;54.4
68873;BME280;55907;50.806;12.882;2023-02-16T01:41:14;981.2;;;5.6;54.6
68873;BME280;55907;50.806;12.882;2023-02-16T01:44:14;981.2;;;5.5;55.1
68873;BME280;55907;50.806;12.882;2023-02-16T01:47:23;981.2;;;5.4;55.4
68873;BME280;55907;50.806;12.882;2023-02-16T01:53:21;981.1;;;5.3;55.9
68873;BME280;55907;50.806;12.882;2023-02-16T01:56:27;981.1;;;5.3;55.9
68873;BME280;55907;50.806;12.882;2023-02-16T01:59:27;981.1;;;5.3;55.7
68873;BME280;55907;50.806;12.882;2023-02-16T02:02:22;981.1;;;5.3;56.4
68873;BME280;55907;50.806;12.882;2023-02-16T02:05:23;981.2;;;5.2;56.7
68873;BME280;55907;50.806;12.882;2023-02-16T02:08:27;981.1;;;5.3;56.7
68873;BME280;55907;50.806;12.882;2023-02-16T02:11:28;981.1;;;5.4;56.7
68873;BME280;55907;50.806;12.882;2023-02-16T02:14:29;981.1;;;5.4;57.0
68873;BME280;55907;50.806;12.882;2023-02-16T02:17:28;981.2;;;5.4;57.0
68873;BME280;55907;50.806;12.882;2023-02-16T02:20:43;981.2;;;5.3;57.3
68873;BME280;55907;50.806;12.882;2023-02-16T02:23:37;981.2;;;5.3;57.7
68873;BME280;55907;50.806;12.882;2023-02-16T02:29:47;981.1;;;5.1;58.4
68873;BME280;55907;50.806;12.882;2023-02-16T02:32:45;981.1;;;5.1;58.6
68873;BME280;55907;50.806;12.882;2023-02-16T02:35:45;981.1;;;5.1;58.7
68873;BME280;55907;50.806;12.882;2023-02-16T02:38:46;981.1;;;5.0;59.1
68873;BME280;55907;50.806;12.882;2023-02-16T02:41:45;981.2;;;5.0;58.8
68873;BME280;55907;50.806;12.882;2023-02-16T02:44:46;981.2;;;5.0;59.1
68873;BME280;55907;50.806;12.882;2023-02-16T02:47:45;981.2;;;5.0;59.5
68873;BME280;55907;50.806;12.882;2023-02-16T02:50:49;981.1;;;4.9;59.5
68873;BME280;55907;50.806;12.882;2023-02-16T02:53:49;981.1;;;4.9;59.7
68873;BME280;55907;50.806;12.882;2023-02-16T02:56:51;981.2;;;4.9;60.3
68873;BME280;55907;50.806;12.882;2023-02-16T02:59:53;981.2;;;4.9;59.7
68873;BME280;55907;50.806;12.882;2023-02-16T03:02:54;981.2;;;4.9;60.9
68873;BME280;55907;50.806;12.882;2023-02-16T03:05:55;981.1;;;4.8;61.1
68873;BME280;55907;50.806;12.882;2023-02-16T03:08:58;981.1;;;4.8;62.0
68873;BME280;55907;50.806;12.882;2023-02-16T03:11:57;981.1;;;4.7;62.2
68873;BME280;55907;50.806;12.882;2023-02-16T03:18:00;981.1;;;4.7;62.5
68873;BME280;55907;50.806;12.882;2023-02-16T03:21:02;981.1;;;4.8;62.5
68873;BME280;55907;50.806;12.882;2023-02-16T03:24:04;981.1;;;4.8;62.6
68873;BME280;55907;50.806;12.882;2023-02-16T03:27:05;981.2;;;4.8;62.4
68873;BME280;55907;50.806;12.882;2023-02-16T03:30:07;981.2;;;4.8;62.4
68873;BME280;55907;50.806;12.882;2023-02-16T03:33:06;981.3;;;4.8;62.5
68873;BME280;55907;50.806;12.882;2023-02-16T03:36:08;981.2;;;4.8;62.3
68873;BME280;55907;50.806;12.882;2023-02-16T03:39:11;981.2;;;4.7;63.1
68873;BME280;55907;50.806;12.882;2023-02-16T03:42:11;981.2;;;4.7;63.4
68873;BME280;55907;50.806;12.882;2023-02-16T03:45:13;981.2;;;4.7;63.6
68873;BME280;55907;50.806;12.882;2023-02-16T03:48:14;981.2;;;4.7;63.7
68873;BME280;55907;50.806;12.882;2023-02-16T03:54:17;981.2;;;4.6;63.5
68873;BME280;55907;50.806;12.882;2023-02-16T03:54:55;unavailable;;;unavailable;unavailable
68873;BME280;55907;50.806;12.882;2023-02-16T04:03:52;981.1;;;4.6;63.7
68873;BME280;55907;50.806;12.882;2023-02-16T04:06:24;981.1;;;4.6;63.6
68873;BME280;55907;50.806;12.882;2023-02-16T04:09:25;981.1;;;4.6;63.6
68873;BME280;55907;50.806;12.882;2023-02-16T04:12:27;981.1;;;4.5;63.6
68873;BME280;55907;50.806;12.882;2023-02-16T04:15:29;981.1;;;4.5;63.7
68873;BME280;55907;50.806;12.882;2023-02-16T04:18:30;981.1;;;4.5;63.7
68873;BME280;55907;50.806;12.882;2023-02-16T04:21:31;981.0;;;4.5;63.8
68873;BME280;55907;50.806;12.882;2023-02-16T04:24:33;981.0;;;4.5;63.9
68873;BME280;55907;50.806;12.882;2023-02-16T04:27:50;981.0;;;4.5;63.8
68873;BME280;55907;50.806;12.882;2023-02-16T04:30:36;981.0;;;4.5;64.0
68873;BME280;55907;50.806;12.882;2023-02-16T04:33:38;981.0;;;4.4;64.5
68873;BME280;55907;50.806;12.882;2023-02-16T04:36:39;981.0;;;4.4;64.3
68873;BME280;55907;50.806;12.882;2023-02-16T04:42:43;981.0;;;4.4;64.3
68873;BME280;55907;50.806;12.882;2023-02-16T04:45:44;981.0;;;4.3;64.6
68873;BME280;55907;50.806;12.882;2023-02-16T04:48:46;981.0;;;4.3;64.5
68873;BME280;55907;50.806;12.882;2023-02-16T04:51:47;981.1;;;4.3;65.4
68873;BME280;55907;50.806;12.882;2023-02-16T04:54:49;981.1;;;4.2;65.1
68873;BME280;55907;50.806;12.882;2023-02-16T04:57:50;981.1;;;4.2;65.3
68873;BME280;55907;50.806;12.882;2023-02-16T05:00:52;981.1;;;4.1;65.8
68873;BME280;55907;50.806;12.882;2023-02-16T05:03:54;981.0;;;4.0;66.6
68873;BME280;55907;50.806;12.882;2023-02-16T05:06:55;981.0;;;4.0;67.4
68873;BME280;55907;50.806;12.882;2023-02-16T05:09:56;981.0;;;4.0;66.7
68873;BME280;55907;50.806;12.882;2023-02-16T05:12:58;981.0;;;4.0;67.1
68873;BME280;55907;50.806;12.882;2023-02-16T05:16:00;981.0;;;4.0;66.4
68873;BME280;55907;50.806;12.882;2023-02-16T05:19:02;981.0;;;4.0;67.1
68873;BME280;55907;50.806;12.882;2023-02-16T05:22:04;981.1;;;4.0;67.3
68873;BME280;55907;50.806;12.882;2023-02-16T05:25:05;981.1;;;3.9;67.4
68873;BME280;55907;50.806;12.882;2023-02-16T05:28:06;981.1;;;3.9;67.2
68873;BME280;55907;50.806;12.882;2023-02-16T05:31:08;981.1;;;3.9;67.6
68873;BME280;55907;50.806;12.882;2023-02-16T05:34:09;981.1;;;3.9;68.0
68873;BME280;55907;50.806;12.882;2023-02-16T05:36:12;unavailable;;;unavailable;unavailable
68873;BME280;55907;50.806;12.882;2023-02-16T05:37:07;981.1;;;3.9;67.8
68873;BME280;55907;50.806;12.882;2023-02-16T05:37:11;981.1;;;3.9;67.8
68873;BME280;55907;50.806;12.882;2023-02-16T05:40:12;981.1;;;3.9;67.7
68873;BME280;55907;50.806;12.882;2023-02-16T05:41:49;unavailable;;;unavailable;unavailable
68873;BME280;55907;50.806;12.882;2023-02-16T05:41:57;981.1;;;3.9;67.9
68873;BME280;55907;50.806;12.882;2023-02-16T05:43:14;981.1;;;4.0;67.6
68873;BME280;55907;50.806;12.882;2023-02-16T05:46:11;unavailable;;;unavailable;unavailable
68873;BME280;55907;50.806;12.882;2023-02-16T05:46:16;981.1;;;4.0;67.7
68873;BME280;55907;50.806;12.882;2023-02-16T05:48:56;unavailable;;;unavailable;unavailable
68873;BME280;55907;50.806;12.882;2023-02-16T05:49:05;981.1;;;4.1;67.8
68873;BME280;55907;50.806;12.882;2023-02-16T05:49:17;981.1;;;4.1;67.8
68873;BME280;55907;50.806;12.882;2023-02-16T05:50:10;unavailable;;;unavailable;unavailable
68873;BME280;55907;50.806;12.882;2023-02-16T05:50:17;981.1;;;4.2;67.3
68873;BME280;55907;50.806;12.882;2023-02-16T05:50:58;unavailable;;;unavailable;unavailable
68873;BME280;55907;50.806;12.882;2023-02-16T05:51:00;981.1;;;4.2;67.2
68873;BME280;55907;50.806;12.882;2023-02-16T05:52:19;981.1;;;4.2;67.1
68873;BME280;55907;50.806;12.882;2023-02-16T05:54:14;unavailable;;;unavailable;unavailable
68873;BME280;55907;50.806;12.882;2023-02-16T05:54:19;unavailable;;;4.3;unavailable
68873;BME280;55907;50.806;12.882;2023-02-16T05:55:19;unavailable;;;unavailable;unavailable
68873;BME280;55907;50.806;12.882;2023-02-16T05:55:29;981.1;;;4.4;66.7
68873;BME280;55907;50.806;12.882;2023-02-16T05:55:54;unavailable;;;unavailable;unavailable
68873;BME280;55907;50.806;12.882;2023-02-16T05:56:00;981.1;;;4.4;66.7
68873;BME280;55907;50.806;12.882;2023-02-16T05:57:58;unavailable;;;unavailable;unavailable
68873;BME280;55907;50.806;12.882;2023-02-16T05:58:02;981.1;;;4.4;66.7
68873;BME280;55907;50.806;12.882;2023-02-16T05:58:22;981.1;;;4.4;66.7
68873;BME280;55907;50.806;12.882;2023-02-16T06:01:24;981.1;;;4.6;66.2
68873;BME280;55907;50.806;12.882;2023-02-16T06:04:26;981.0;;;4.6;66.1
68873;BME280;55907;50.806;12.882;2023-02-16T06:06:26;unavailable;;;unavailable;unavailable
68873;BME280;55907;50.806;12.882;2023-02-16T06:06:27;981.1;;;4.4;66.4
68873;BME280;55907;50.806;12.882;2023-02-16T06:07:39;unavailable;;;unavailable;unavailable
68873;BME280;55907;50.806;12.882;2023-02-16T06:08:12;981.0;;;4.4;66.3
68873;BME280;55907;50.806;12.882;2023-02-16T06:10:25;unavailable;;;unavailable;unavailable
68873;BME280;55907;50.806;12.882;2023-02-16T06:12:48;981.0;;;4.2;66.9
68873;BME280;55907;50.806;12.882;2023-02-16T06:13:29;981.0;;;4.3;66.2
68873;BME280;55907;50.806;12.882;2023-02-16T06:16:32;981.0;;;4.3;66.2
68873;BME280;55907;50.806;12.882;2023-02-16T06:19:33;981.0;;;4.2;66.2
68873;BME280;55907;50.806;12.882;2023-02-16T06:22:34;981.0;;;4.2;66.3
68873;BME280;55907;50.806;12.882;2023-02-16T06:25:36;981.0;;;4.2;66.3
68873;BME280;55907;50.806;12.882;2023-02-16T06:28:37;980.9;;;4.2;66.3
68873;BME280;55907;50.806;12.882;2023-02-16T06:31:39;981.0;;;4.2;66.7
68873;BME280;55907;50.806;12.882;2023-02-16T06:34:40;981.0;;;4.2;66.5
68873;BME280;55907;50.806;12.882;2023-02-16T06:37:44;981.0;;;4.2;66.3
68873;BME280;55907;50.806;12.882;2023-02-16T06:40:44;981.0;;;4.2;66.5
68873;BME280;55907;50.806;12.882;2023-02-16T06:43:45;981.0;;;4.2;66.5
68873;BME280;55907;50.806;12.882;2023-02-16T06:46:47;981.1;;;4.3;66.3
68873;BME280;55907;50.806;12.882;2023-02-16T06:49:48;981.1;;;4.3;66.4
68873;BME280;55907;50.806;12.882;2023-02-16T06:52:50;981.1;;;4.4;66.3
68873;BME280;55907;50.806;12.882;2023-02-16T06:55:52;981.1;;;4.4;66.5
68873;BME280;55907;50.806;12.882;2023-02-16T06:58:53;981.1;;;4.5;66.8
68873;BME280;55907;50.806;12.882;2023-02-16T07:01:54;981.1;;;4.6;66.7
68873;BME280;55907;50.806;12.882;2023-02-16T07:04:56;981.1;;;4.7;65.8
68873;BME280;55907;50.806;12.882;2023-02-16T07:07:58;981.2;;;4.8;65.7
68873;BME280;55907;50.806;12.882;2023-02-16T07:10:59;981.2;;;4.9;65.3
68873;BME280;55907;50.806;12.882;2023-02-16T07:14:01;981.1;;;5.0;64.9
68873;BME280;55907;50.806;12.882;2023-02-16T07:17:02;981.2;;;5.2;64.2
68873;BME280;55907;50.806;12.882;2023-02-16T07:20:05;981.2;;;5.3;63.5
68873;BME280;55907;50.806;12.882;2023-02-16T07:23:05;981.1;;;5.5;63.2
68873;BME280;55907;50.806;12.882;2023-02-16T07:26:07;981.1;;;5.7;62.6
68873;BME280;55907;50.806;12.882;2023-02-16T07:29:09;981.2;;;5.8;62.2
68873;BME280;55907;50.806;12.882;2023-02-16T07:32:10;981.2;;;5.8;61.9
68873;BME280;55907;50.806;12.882;2023-02-16T07:35:11;981.3;;;5.9;61.7
68873;BME280;55907;50.806;12.882;2023-02-16T07:38:13;981.2;;;5.9;61.8
68873;BME280;55907;50.806;12.882;2023-02-16T07:41:15;981.2;;;6.0;61.7
68873;BME280;55907;50.806;12.882;2023-02-16T07:44:16;981.1;;;6.1;61.7
68873;BME280;55907;50.806;12.882;2023-02-16T07:47:18;981.1;;;6.3;61.0
68873;BME280;55907;50.806;12.882;2023-02-16T07:50:19;981.2;;;6.7;60.5
68873;BME280;55907;50.806;12.882;2023-02-16T07:53:21;981.2;;;7.1;59.4
68873;BME280;55907;50.806;12.882;2023-02-16T07:56:24;981.1;;;7.5;57.9
68873;BME280;55907;50.806;12.882;2023-02-16T07:59:24;981.1;;;7.7;57.9
68873;BME280;55907;50.806;12.882;2023-02-16T08:02:25;981.2;;;7.7;57.6
68873;BME280;55907;50.806;12.882;2023-02-16T08:05:27;981.2;;;7.7;57.8
68873;BME280;55907;50.806;12.882;2023-02-16T08:08:28;981.2;;;7.7;57.5
68873;BME280;55907;50.806;12.882;2023-02-16T08:11:30;981.2;;;8.0;57.5
68873;BME280;55907;50.806;12.882;2023-02-16T08:14:31;981.1;;;8.1;56.3
68873;BME280;55907;50.806;12.882;2023-02-16T08:17:33;981.2;;;8.4;55.8
68873;BME280;55907;50.806;12.882;2023-02-16T08:20:34;981.1;;;8.5;55.2
68873;BME280;55907;50.806;12.882;2023-02-16T08:26:39;981.1;;;8.8;54.9
68873;BME280;55907;50.806;12.882;2023-02-16T08:29:39;981.2;;;8.9;54.5
68873;BME280;55907;50.806;12.882;2023-02-16T08:32:40;981.1;;;9.0;54.0
68873;BME280;55907;50.806;12.882;2023-02-16T08:35:42;981.1;;;9.2;53.5
68873;BME280;55907;50.806;12.882;2023-02-16T08:38:43;981.1;;;9.4;52.6
68873;BME280;55907;50.806;12.882;2023-02-16T08:41:47;981.1;;;9.5;52.3
68873;BME280;55907;50.806;12.882;2023-02-16T08:44:47;981.0;;;9.5;52.0
68873;BME280;55907;50.806;12.882;2023-02-16T08:47:48;981.1;;;9.4;51.9
68873;BME280;55907;50.806;12.882;2023-02-16T08:50:50;981.0;;;9.5;51.6
68873;BME280;55907;50.806;12.882;2023-02-16T08:53:51;981.0;;;9.7;51.2
68873;BME280;55907;50.806;12.882;2023-02-16T08:59:54;981.1;;;10.8;48.4
68873;BME280;55907;50.806;12.882;2023-02-16T09:02:58;981.0;;;11.2;47.3
68873;BME280;55907;50.806;12.882;2023-02-16T09:08:58;981.0;;;12.0;45.4
68873;BME280;55907;50.806;12.882;2023-02-16T09:12:00;981.0;;;12.1;45.1
68873;BME280;55907;50.806;12.882;2023-02-16T09:14:00;unavailable;;;unavailable;unavailable
68873;BME280;55907;50.806;12.882;2023-02-16T09:15:01;981.0;;;12.6;44.7
68873;BME280;55907;50.806;12.882;2023-02-16T09:15:48;unavailable;;;unavailable;unavailable
68873;BME280;55907;50.806;12.882;2023-02-16T09:16:00;981.0;;;12.8;43.9
68873;BME280;55907;50.806;12.882;2023-02-16T09:18:00;unavailable;;;unavailable;unavailable
68873;BME280;55907;50.806;12.882;2023-02-16T09:18:03;981.0;;;12.9;43.1
68873;BME280;55907;50.806;12.882;2023-02-16T09:21:09;981.1;;;12.9;43.1
68873;BME280;55907;50.806;12.882;2023-02-16T09:23:00;unavailable;;;unavailable;unavailable
68873;BME280;55907;50.806;12.882;2023-02-16T09:23:07;981.0;;;12.9;42.6
68873;BME280;55907;50.806;12.882;2023-02-16T09:24:06;981.1;;;12.9;42.7
68873;BME280;55907;50.806;12.882;2023-02-16T09:25:46;unavailable;;;unavailable;unavailable
68873;BME280;55907;50.806;12.882;2023-02-16T09:25:58;981.1;;;13.4;42.2
68873;BME280;55907;50.806;12.882;2023-02-16T09:27:07;981.1;;;13.4;41.9
68873;BME280;55907;50.806;12.882;2023-02-16T09:28:46;unavailable;;;unavailable;unavailable
68873;BME280;55907;50.806;12.882;2023-02-16T09:28:52;981.2;;;14.1;41.5
68873;BME280;55907;50.806;12.882;2023-02-16T09:30:09;981.1;;;14.3;41.1
68873;BME280;55907;50.806;12.882;2023-02-16T09:32:15;unavailable;;;unavailable;unavailable
68873;BME280;55907;50.806;12.882;2023-02-16T09:32:17;981.1;;;14.8;39.1
68873;BME280;55907;50.806;12.882;2023-02-16T09:33:10;981.1;;;15.1;39.1
68873;BME280;55907;50.806;12.882;2023-02-16T09:36:12;981.2;;;15.5;37.8
68873;BME280;55907;50.806;12.882;2023-02-16T09:36:15;unavailable;;;unavailable;unavailable
68873;BME280;55907;50.806;12.882;2023-02-16T09:36:19;981.2;;;15.5;37.8
68873;BME280;55907;50.806;12.882;2023-02-16T09:39:15;981.2;;;16.4;36.3
68873;BME280;55907;50.806;12.882;2023-02-16T09:39:16;unavailable;;;unavailable;unavailable
68873;BME280;55907;50.806;12.882;2023-02-16T09:39:17;981.2;;;16.4;36.3
68873;BME280;55907;50.806;12.882;2023-02-16T09:42:26;981.2;;;17.5;33.7
68873;BME280;55907;50.806;12.882;2023-02-16T09:45:18;981.3;;;18.0;33.6
68873;BME280;55907;50.806;12.882;2023-02-16T09:48:21;981.3;;;18.1;32.3
68873;BME280;55907;50.806;12.882;2023-02-16T09:51:20;981.3;;;18.5;31.8
68873;BME280;55907;50.806;12.882;2023-02-16T09:54:29;981.3;;;19.3;31.9
68873;BME280;55907;50.806;12.882;2023-02-16T09:57:39;981.2;;;19.7;31.4
68873;BME280;55907;50.806;12.882;2023-02-16T10:00:41;unavailable;;;unavailable;unavailable
68873;BME280;55907;50.806;12.882;2023-02-16T10:01:27;unavailable;;;unavailable;unavailable
68873;BME280;55907;50.806;12.882;2023-02-16T10:03:35;981.3;;;19.1;31.3
68873;BME280;55907;50.806;12.882;2023-02-16T10:06:32;981.3;;;19.4;31.5
68873;BME280;55907;50.806;12.882;2023-02-16T10:09:27;981.3;;;19.4;31.1
68873;BME280;55907;50.806;12.882;2023-02-16T10:12:32;981.3;;;19.3;30.7
68873;BME280;55907;50.806;12.882;2023-02-16T10:13:15;unavailable;;;unavailable;unavailable
68873;BME280;55907;50.806;12.882;2023-02-16T10:17:13;981.2;;;18.8;30.3
68873;BME280;55907;50.806;12.882;2023-02-16T10:18:34;981.2;;;18.8;30.9
68873;BME280;55907;50.806;12.882;2023-02-16T10:21:33;981.2;;;18.8;30.9
68873;BME280;55907;50.806;12.882;2023-02-16T10:24:56;981.3;;;19.2;30.8
68873;BME280;55907;50.806;12.882;2023-02-16T10:27:38;981.2;;;19.8;30.1
68873;BME280;55907;50.806;12.882;2023-02-16T10:30:38;981.2;;;20.5;29.7
68873;BME280;55907;50.806;12.882;2023-02-16T10:33:41;981.2;;;21.1;28.6
68873;BME280;55907;50.806;12.882;2023-02-16T10:36:46;981.2;;;21.1;28.1
68873;BME280;55907;50.806;12.882;2023-02-16T10:39:47;981.2;;;21.1;28.6
68873;BME280;55907;50.806;12.882;2023-02-16T10:42:45;981.3;;;21.0;28.3
68873;BME280;55907;50.806;12.882;2023-02-16T10:45:47;981.3;;;21.1;28.7
68873;BME280;55907;50.806;12.882;2023-02-16T10:48:45;981.2;;;21.3;28.3
68873;BME280;55907;50.806;12.882;2023-02-16T10:51:49;981.2;;;21.1;28.4
68873;BME280;55907;50.806;12.882;2023-02-16T10:54:48;981.1;;;20.9;28.7
68873;BME280;55907;50.806;12.882;2023-02-16T10:57:51;981.2;;;20.8;27.9
68873;BME280;55907;50.806;12.882;2023-02-16T11:00:55;981.2;;;21.0;28.1
68873;BME280;55907;50.806;12.882;2023-02-16T11:03:52;981.2;;;20.8;27.7
68873;BME280;55907;50.806;12.882;2023-02-16T11:07:01;981.1;;;20.6;27.5
68873;BME280;55907;50.806;12.882;2023-02-16T11:09:57;981.1;;;20.5;27.8
68873;BME280;55907;50.806;12.882;2023-02-16T11:12:56;981.0;;;20.5;28.2
68873;BME280;55907;50.806;12.882;2023-02-16T11:16:00;981.0;;;20.5;27.9
68873;BME280;55907;50.806;12.882;2023-02-16T11:19:01;981.0;;;20.9;28.6
68873;BME280;55907;50.806;12.882;2023-02-16T11:22:00;980.9;;;21.1;28.7
68873;BME280;55907;50.806;12.882;2023-02-16T11:25:16;980.9;;;21.1;26.9
68873;BME280;55907;50.806;12.882;2023-02-16T11:28:03;980.8;;;20.5;27.6
68873;BME280;55907;50.806;12.882;2023-02-16T11:31:12;980.9;;;20.4;27.9
68873;BME280;55907;50.806;12.882;2023-02-16T11:34:11;980.8;;;19.9;28.2
68873;BME280;55907;50.806;12.882;2023-02-16T11:37:14;980.8;;;19.5;28.9
68873;BME280;55907;50.806;12.882;2023-02-16T11:40:18;980.7;;;19.3;29.6
68873;BME280;55907;50.806;12.882;2023-02-16T11:43:16;980.7;;;19.1;29.9
68873;BME280;55907;50.806;12.882;2023-02-16T11:46:14;980.8;;;19.1;30.1
68873;BME280;55907;50.806;12.882;2023-02-16T11:49:20;980.7;;;19.3;30.1
68873;BME280;55907;50.806;12.882;2023-02-16T11:52:24;980.7;;;19.0;30.0
68873;BME280;55907;50.806;12.882;2023-02-16T11:55:20;980.7;;;19.0;30.3
68873;BME280;55907;50.806;12.882;2023-02-16T11:58:19;980.7;;;18.5;30.3
68873;BME280;55907;50.806;12.882;2023-02-16T12:01:23;980.6;;;17.9;31.5
68873;BME280;55907;50.806;12.882;2023-02-16T12:04:29;980.6;;;17.6;32.4
68873;BME280;55907;50.806;12.882;2023-02-16T12:07:26;980.6;;;17.2;33.4
68873;BME280;55907;50.806;12.882;2023-02-16T12:10:28;980.6;;;16.8;33.7
68873;BME280;55907;50.806;12.882;2023-02-16T12:13:30;980.6;;;16.5;34.6
68873;BME280;55907;50.806;12.882;2023-02-16T12:15:20;980.6;;;16.2;35.0
68873;BME280;55907;50.806;12.882;2023-02-16T12:16:30;980.6;;;16.0;35.8
68873;BME280;55907;50.806;12.882;2023-02-16T12:19:32;980.6;;;15.6;36.4
68873;BME280;55907;50.806;12.882;2023-02-16T12:22:33;980.6;;;15.5;36.9
68873;BME280;55907;50.806;12.882;2023-02-16T12:25:36;980.6;;;15.4;37.1
68873;BME280;55907;50.806;12.882;2023-02-16T12:28:37;980.5;;;15.4;37.3
68873;BME280;55907;50.806;12.882;2023-02-16T12:31:38;980.5;;;15.1;37.8
68873;BME280;55907;50.806;12.882;2023-02-16T12:34:43;980.4;;;15.0;38.3
68873;BME280;55907;50.806;12.882;2023-02-16T12:37:39;980.4;;;14.9;38.2
68873;BME280;55907;50.806;12.882;2023-02-16T12:40:45;980.4;;;14.9;38.5
68873;BME280;55907;50.806;12.882;2023-02-16T12:43:41;980.4;;;15.1;38.5
68873;BME280;55907;50.806;12.882;2023-02-16T12:46:42;980.5;;;15.1;38.3
68873;BME280;55907;50.806;12.882;2023-02-16T12:49:47;980.4;;;14.9;38.5
68873;BME280;55907;50.806;12.882;2023-02-16T12:52:47;980.4;;;14.5;39.1
68873;BME280;55907;50.806;12.882;2023-02-16T12:55:46;980.4;;;14.2;39.7
68873;BME280;55907;50.806;12.882;2023-02-16T12:58:48;980.3;;;14.1;40.3
68873;BME280;55907;50.806;12.882;2023-02-16T13:01:50;980.3;;;14.0;40.8
68873;BME280;55907;50.806;12.882;2023-02-16T13:04:54;980.2;;;14.1;40.7
68873;BME280;55907;50.806;12.882;2023-02-16T13:07:53;980.2;;;14.2;41.3
68873;BME280;55907;50.806;12.882;2023-02-16T13:13:58;980.3;;;13.9;40.8
68873;BME280;55907;50.806;12.882;2023-02-16T13:16:57;980.2;;;13.9;41.8
68873;BME280;55907;50.806;12.882;2023-02-16T13:19:57;980.2;;;13.9;41.4
68873;BME280;55907;50.806;12.882;2023-02-16T13:23:15;980.2;;;13.8;41.5
68873;BME280;55907;50.806;12.882;2023-02-16T13:26:08;980.2;;;13.7;41.5
68873;BME280;55907;50.806;12.882;2023-02-16T13:29:06;980.2;;;13.7;41.3
68873;BME280;55907;50.806;12.882;2023-02-16T13:32:14;980.1;;;13.5;41.3
68873;BME280;55907;50.806;12.882;2023-02-16T13:35:17;980.1;;;13.5;41.7
68873;BME280;55907;50.806;12.882;2023-02-16T13:38:20;980.1;;;13.4;42.2
68873;BME280;55907;50.806;12.882;2023-02-16T13:41:14;980.1;;;13.3;42.2
68873;BME280;55907;50.806;12.882;2023-02-16T13:44:09;980.2;;;13.3;42.3
68873;BME280;55907;50.806;12.882;2023-02-16T13:46:27;980.1;;;13.4;42.1
68873;BME280;55907;50.806;12.882;2023-02-16T13:47:13;980.1;;;13.4;42.1
68873;BME280;55907;50.806;12.882;2023-02-16T13:48:13;980.1;;;13.4;42.3
68873;BME280;55907;50.806;12.882;2023-02-16T13:50:27;unavailable;;;unavailable;unavailable
68873;BME280;55907;50.806;12.882;2023-02-16T13:52:29;980.1;;;13.2;42.6
68873;BME280;55907;50.806;12.882;2023-02-16T13:53:17;980.1;;;13.2;42.6
68873;BME280;55907;50.806;12.882;2023-02-16T13:53:33;980.1;;;13.2;42.0
68873;BME280;55907;50.806;12.882;2023-02-16T13:55:37;unavailable;;;unavailable;unavailable
68873;BME280;55907;50.806;12.882;2023-02-16T13:56:12;980.1;;;13.0;42.9
68873;BME280;55907;50.806;12.882;2023-02-16T13:56:20;980.1;;;13.0;42.9
68873;BME280;55907;50.806;12.882;2023-02-16T14:05:22;980.2;;;12.8;42.4
68873;BME280;55907;50.806;12.882;2023-02-16T14:08:22;980.2;;;12.8;42.5
68873;BME280;55907;50.806;12.882;2023-02-16T14:11:21;980.1;;;12.6;42.7
68873;BME280;55907;50.806;12.882;2023-02-16T14:14:25;980.1;;;12.7;43.3
68873;BME280;55907;50.806;12.882;2023-02-16T14:17:26;980.1;;;12.7;43.1
68873;BME280;55907;50.806;12.882;2023-02-16T14:20:28;980.1;;;12.6;43.4
68873;BME280;55907;50.806;12.882;2023-02-16T14:23:29;980.1;;;12.6;43.0
68873;BME280;55907;50.806;12.882;2023-02-16T14:26:29;980.0;;;12.5;43.0
68873;BME280;55907;50.806;12.882;2023-02-16T14:29:31;980.1;;;12.4;43.4
68873;BME280;55907;50.806;12.882;2023-02-16T14:32:33;980.2;;;12.2;43.3
68873;BME280;55907;50.806;12.882;2023-02-16T14:35:34;980.1;;;12.1;43.4
68873;BME280;55907;50.806;12.882;2023-02-16T14:38:35;980.1;;;11.9;43.9
68873;BME280;55907;50.806;12.882;2023-02-16T14:41:36;980.2;;;11.7;43.9
68873;BME280;55907;50.806;12.882;2023-02-16T14:44:52;980.2;;;11.4;44.4
68873;BME280;55907;50.806;12.882;2023-02-16T14:47:46;980.2;;;11.2;44.3